sensor_id;sensor_type;location;lat;lon;timestamp;temperature;humidity
74869;DHT22;63419;42.262;12.210;2022-11-20T00:02:23;10.20;99.90
74869;DHT22;63419;42.262;12.210;2022-11-20T00:05:08;10.30;99.90
74869;DHT22;63419;42.262;12.210;2022-11-20T00:07:39;10.40;99.90
74869;DHT22;63419;42.262;12.210;2022-11-20T00:10:08;10.40;99.90
74869;DHT22;63419;42.262;12.210;2022-11-20T00:12:40;10.40;99.90
74869;DHT22;63419;42.262;12.210;2022-11-20T00:15:11;10.40;99.90
74869;DHT22;63419;42.262;12.210;2022-11-20T00:17:39;10.30;99.90
74869;DHT22;63419;42.262;12.210;2022-11-20T00:20:08;10.30;99.90
74869;DHT22;63419;42.262;12.210;2022-11-20T00:22:38;10.30;99.90
74869;DHT22;63419;42.262;12.210;2022-11-20T00:25:09;10.20;99.90
74869;DHT22;63419;42.262;12.210;2022-11-20T00:27:39;10.10;99.90
74869;DHT22;63419;42.262;12.210;2022-11-20T00:30:14;10.10;99.90
74869;DHT22;63419;42.262;12.210;2022-11-20T00:32:47;10.00;99.90
74869;DHT22;63419;42.262;12.210;2022-11-20T00:35:15;10.00;99.90
74869;DHT22;63419;42.262;12.210;2022-11-20T00:37:43;10.00;99.90
74869;DHT22;63419;42.262;12.210;2022-11-20T00:40:11;9.90;99.90
74869;DHT22;63419;42.262;12.210;2022-11-20T00:42:47;9.90;99.90
74869;DHT22;63419;42.262;12.210;2022-11-20T00:45:18;9.90;99.90
74869;DHT22;63419;42.262;12.210;2022-11-20T00:47:45;10.00;99.90
74869;DHT22;63419;42.262;12.210;2022-11-20T00:50:13;9.90;99.90
74869;DHT22;63419;42.262;12.210;2022-11-20T00:52:47;10.00;99.90
74869;DHT22;63419;42.262;12.210;2022-11-20T00:55:18;10.00;99.90
74869;DHT22;63419;42.262;12.210;2022-11-20T00:57:48;9.80;99.90
74869;DHT22;63419;42.262;12.210;2022-11-20T01:00:16;9.80;99.90
74869;DHT22;63419;42.262;12.210;2022-11-20T01:02:48;9.80;99.90
74869;DHT22;63419;42.262;12.210;2022-11-20T01:05:19;9.80;99.90
74869;DHT22;63419;42.262;12.210;2022-11-20T01:07:47;9.80;99.90
74869;DHT22;63419;42.262;12.210;2022-11-20T01:10:15;9.70;99.90
74869;DHT22;63419;42.262;12.210;2022-11-20T01:12:48;9.70;99.90
74869;DHT22;63419;42.262;12.210;2022-11-20T01:15:50;9.80;99.90
74869;DHT22;63419;42.262;12.210;2022-11-20T01:18:26;9.80;99.90
74869;DHT22;63419;42.262;12.210;2022-11-20T01:20:54;9.80;99.90
74869;DHT22;63419;42.262;12.210;2022-11-20T01:23:29;9.70;99.90
74869;DHT22;63419;42.262;12.210;2022-11-20T01:26:03;9.60;99.90
74869;DHT22;63419;42.262;12.210;2022-11-20T01:28:40;9.50;99.90
74869;DHT22;63419;42.262;12.210;2022-11-20T01:31:27;9.60;99.90
74869;DHT22;63419;42.262;12.210;2022-11-20T01:34:01;9.60;99.90
74869;DHT22;63419;42.262;12.210;2022-11-20T01:36:36;9.50;99.90
74869;DHT22;63419;42.262;12.210;2022-11-20T01:39:18;9.40;99.90
74869;DHT22;63419;42.262;12.210;2022-11-20T01:41:50;9.30;99.90
74869;DHT22;63419;42.262;12.210;2022-11-20T01:44:56;9.10;99.90
74869;DHT22;63419;42.262;12.210;2022-11-20T01:47:37;8.90;99.90
74869;DHT22;63419;42.262;12.210;2022-11-20T01:50:36;8.90;99.90
74869;DHT22;63419;42.262;12.210;2022-11-20T01:53:09;9.00;99.90
74869;DHT22;63419;42.262;12.210;2022-11-20T01:55:49;9.00;99.90
74869;DHT22;63419;42.262;12.210;2022-11-20T01:58:33;8.90;99.90
74869;DHT22;63419;42.262;12.210;2022-11-20T02:01:05;8.90;99.90
74869;DHT22;63419;42.262;12.210;2022-11-20T02:03:34;8.90;99.90
74869;DHT22;63419;42.262;12.210;2022-11-20T02:06:25;8.80;99.90
74869;DHT22;63419;42.262;12.210;2022-11-20T02:09:04;8.70;99.90
74869;DHT22;63419;42.262;12.210;2022-11-20T02:11:33;8.50;99.90
74869;DHT22;63419;42.262;12.210;2022-11-20T02:14:03;8.50;99.90
74869;DHT22;63419;42.262;12.210;2022-11-20T02:16:34;8.70;99.90
74869;DHT22;63419;42.262;12.210;2022-11-20T02:19:16;8.80;99.90
74869;DHT22;63419;42.262;12.210;2022-11-20T02:22:12;8.80;99.90
74869;DHT22;63419;42.262;12.210;2022-11-20T02:25:00;8.80;99.90
74869;DHT22;63419;42.262;12.210;2022-11-20T02:27:38;8.90;99.90
74869;DHT22;63419;42.262;12.210;2022-11-20T02:30:09;8.90;99.90
74869;DHT22;63419;42.262;12.210;2022-11-20T02:32:43;8.80;99.90
74869;DHT22;63419;42.262;12.210;2022-11-20T02:37:53;8.90;99.90
74869;DHT22;63419;42.262;12.210;2022-11-20T02:40:23;8.90;99.90
74869;DHT22;63419;42.262;12.210;2022-11-20T02:42:57;8.70;99.90
74869;DHT22;63419;42.262;12.210;2022-11-20T02:45:25;8.80;99.90
74869;DHT22;63419;42.262;12.210;2022-11-20T02:47:56;8.90;99.90
74869;DHT22;63419;42.262;12.210;2022-11-20T02:50:29;8.90;99.90
74869;DHT22;63419;42.262;12.210;2022-11-20T02:53:04;8.80;99.90
74869;DHT22;63419;42.262;12.210;2022-11-20T02:55:35;8.80;99.90
74869;DHT22;63419;42.262;12.210;2022-11-20T02:58:04;8.70;99.90
74869;DHT22;63419;42.262;12.210;2022-11-20T03:00:43;8.40;99.90
74869;DHT22;63419;42.262;12.210;2022-11-20T03:03:14;8.30;99.90
74869;DHT22;63419;42.262;12.210;2022-11-20T03:05:50;8.10;99.90
74869;DHT22;63419;42.262;12.210;2022-11-20T03:08:20;7.80;99.90
74869;DHT22;63419;42.262;12.210;2022-11-20T03:10:52;7.80;99.90
74869;DHT22;63419;42.262;12.210;2022-11-20T03:13:25;7.80;99.90
74869;DHT22;63419;42.262;12.210;2022-11-20T03:15:55;7.90;99.90
74869;DHT22;63419;42.262;12.210;2022-11-20T03:18:31;7.90;99.90
74869;DHT22;63419;42.262;12.210;2022-11-20T03:21:02;8.00;99.90
74869;DHT22;63419;42.262;12.210;2022-11-20T03:23:34;8.10;99.90
74869;DHT22;63419;42.262;12.210;2022-11-20T03:26:21;8.00;99.90
74869;DHT22;63419;42.262;12.210;2022-11-20T03:28:53;7.90;99.90
74869;DHT22;63419;42.262;12.210;2022-11-20T03:31:26;7.90;99.90
74869;DHT22;63419;42.262;12.210;2022-11-20T03:34:17;7.90;99.90
74869;DHT22;63419;42.262;12.210;2022-11-20T03:36:50;8.00;99.90
74869;DHT22;63419;42.262;12.210;2022-11-20T03:39:18;7.90;99.90
74869;DHT22;63419;42.262;12.210;2022-11-20T03:41:47;8.10;99.90
74869;DHT22;63419;42.262;12.210;2022-11-20T03:44:20;8.00;99.90
74869;DHT22;63419;42.262;12.210;2022-11-20T03:46:49;7.80;99.90
74869;DHT22;63419;42.262;12.210;2022-11-20T03:49:17;7.60;99.90
74869;DHT22;63419;42.262;12.210;2022-11-20T03:51:46;7.60;99.90
74869;DHT22;63419;42.262;12.210;2022-11-20T03:54:14;7.50;99.90
74869;DHT22;63419;42.262;12.210;2022-11-20T03:56:49;7.40;99.90
74869;DHT22;63419;42.262;12.210;2022-11-20T03:59:19;7.50;99.90
74869;DHT22;63419;42.262;12.210;2022-11-20T04:01:49;7.50;99.90
74869;DHT22;63419;42.262;12.210;2022-11-20T04:04:31;7.60;99.90
74869;DHT22;63419;42.262;12.210;2022-11-20T04:06:59;7.50;99.90
74869;DHT22;63419;42.262;12.210;2022-11-20T04:09:34;7.50;99.90
74869;DHT22;63419;42.262;12.210;2022-11-20T04:12:07;7.50;99.90
74869;DHT22;63419;42.262;12.210;2022-11-20T04:14:39;7.60;99.90
74869;DHT22;63419;42.262;12.210;2022-11-20T04:17:14;7.50;99.90
74869;DHT22;63419;42.262;12.210;2022-11-20T04:19:50;7.50;99.90
74869;DHT22;63419;42.262;12.210;2022-11-20T04:22:18;7.60;99.90
74869;DHT22;63419;42.262;12.210;2022-11-20T04:24:45;7.80;99.90
74869;DHT22;63419;42.262;12.210;2022-11-20T04:27:16;7.80;99.90
74869;DHT22;63419;42.262;12.210;2022-11-20T04:29:55;7.80;99.90
74869;DHT22;63419;42.262;12.210;2022-11-20T04:32:24;7.90;99.90
74869;DHT22;63419;42.262;12.210;2022-11-20T04:35:02;7.70;99.90
74869;DHT22;63419;42.262;12.210;2022-11-20T04:37:33;7.50;99.90
74869;DHT22;63419;42.262;12.210;2022-11-20T04:40:01;7.60;99.90
74869;DHT22;63419;42.262;12.210;2022-11-20T04:42:30;7.60;99.90
74869;DHT22;63419;42.262;12.210;2022-11-20T04:45:01;7.60;99.90
74869;DHT22;63419;42.262;12.210;2022-11-20T04:47:35;7.60;99.90
74869;DHT22;63419;42.262;12.210;2022-11-20T04:50:06;7.60;99.90
74869;DHT22;63419;42.262;12.210;2022-11-20T04:52:35;7.50;99.90
74869;DHT22;63419;42.262;12.210;2022-11-20T04:55:08;7.50;99.90
74869;DHT22;63419;42.262;12.210;2022-11-20T04:57:36;7.40;99.90
74869;DHT22;63419;42.262;12.210;2022-11-20T05:00:05;7.50;99.90
74869;DHT22;63419;42.262;12.210;2022-11-20T05:02:35;7.40;99.90
74869;DHT22;63419;42.262;12.210;2022-11-20T05:05:03;7.40;99.90
74869;DHT22;63419;42.262;12.210;2022-11-20T05:07:36;7.40;99.90
74869;DHT22;63419;42.262;12.210;2022-11-20T05:10:04;7.50;99.90
74869;DHT22;63419;42.262;12.210;2022-11-20T05:12:32;7.60;99.90
74869;DHT22;63419;42.262;12.210;2022-11-20T05:15:07;7.60;99.90
74869;DHT22;63419;42.262;12.210;2022-11-20T05:17:37;7.70;99.90
74869;DHT22;63419;42.262;12.210;2022-11-20T05:20:07;7.70;99.90
74869;DHT22;63419;42.262;12.210;2022-11-20T05:22:39;7.80;99.90
74869;DHT22;63419;42.262;12.210;2022-11-20T05:25:10;7.80;99.90
74869;DHT22;63419;42.262;12.210;2022-11-20T05:27:44;7.70;99.90
74869;DHT22;63419;42.262;12.210;2022-11-20T05:30:13;7.60;99.90
74869;DHT22;63419;42.262;12.210;2022-11-20T05:32:41;7.70;99.90
74869;DHT22;63419;42.262;12.210;2022-11-20T05:35:09;7.80;99.90
74869;DHT22;63419;42.262;12.210;2022-11-20T05:37:44;7.80;99.90
74869;DHT22;63419;42.262;12.210;2022-11-20T05:40:16;7.90;99.90
74869;DHT22;63419;42.262;12.210;2022-11-20T05:42:48;7.90;99.90
74869;DHT22;63419;42.262;12.210;2022-11-20T05:45:15;7.90;99.90
74869;DHT22;63419;42.262;12.210;2022-11-20T05:47:52;7.90;99.90
74869;DHT22;63419;42.262;12.210;2022-11-20T05:50:22;7.70;99.90
74869;DHT22;63419;42.262;12.210;2022-11-20T05:52:50;7.60;99.90
74869;DHT22;63419;42.262;12.210;2022-11-20T05:55:22;7.60;99.90
74869;DHT22;63419;42.262;12.210;2022-11-20T05:57:53;7.60;99.90
74869;DHT22;63419;42.262;12.210;2022-11-20T06:00:23;7.70;99.90
74869;DHT22;63419;42.262;12.210;2022-11-20T06:02:50;7.80;99.90
74869;DHT22;63419;42.262;12.210;2022-11-20T06:05:27;7.90;99.90
74869;DHT22;63419;42.262;12.210;2022-11-20T06:07:54;8.00;99.90
74869;DHT22;63419;42.262;12.210;2022-11-20T06:10:24;8.00;99.90
74869;DHT22;63419;42.262;12.210;2022-11-20T06:12:57;7.90;99.90
74869;DHT22;63419;42.262;12.210;2022-11-20T06:15:25;7.90;99.90
74869;DHT22;63419;42.262;12.210;2022-11-20T06:17:59;7.70;99.90
74869;DHT22;63419;42.262;12.210;2022-11-20T06:20:30;7.70;99.90
74869;DHT22;63419;42.262;12.210;2022-11-20T06:23:06;7.70;99.90
74869;DHT22;63419;42.262;12.210;2022-11-20T06:25:41;7.70;99.90
74869;DHT22;63419;42.262;12.210;2022-11-20T06:28:10;7.80;99.90
74869;DHT22;63419;42.262;12.210;2022-11-20T06:30:44;7.80;99.90
74869;DHT22;63419;42.262;12.210;2022-11-20T06:33:13;7.90;99.90
74869;DHT22;63419;42.262;12.210;2022-11-20T06:35:45;8.00;99.90
74869;DHT22;63419;42.262;12.210;2022-11-20T06:38:12;8.00;99.90
74869;DHT22;63419;42.262;12.210;2022-11-20T06:40:44;8.10;99.90
74869;DHT22;63419;42.262;12.210;2022-11-20T06:43:12;8.10;99.90
74869;DHT22;63419;42.262;12.210;2022-11-20T06:45:46;8.20;99.90
74869;DHT22;63419;42.262;12.210;2022-11-20T06:48:13;8.20;99.90
74869;DHT22;63419;42.262;12.210;2022-11-20T06:50:40;8.30;99.90
74869;DHT22;63419;42.262;12.210;2022-11-20T06:53:08;8.30;99.90
74869;DHT22;63419;42.262;12.210;2022-11-20T06:55:41;8.40;99.90
74869;DHT22;63419;42.262;12.210;2022-11-20T06:58:12;8.30;99.90
74869;DHT22;63419;42.262;12.210;2022-11-20T07:00:42;8.30;99.90
74869;DHT22;63419;42.262;12.210;2022-11-20T07:03:13;8.20;99.90
74869;DHT22;63419;42.262;12.210;2022-11-20T07:05:45;8.20;99.90
74869;DHT22;63419;42.262;12.210;2022-11-20T07:08:16;8.20;99.90
74869;DHT22;63419;42.262;12.210;2022-11-20T07:10:45;8.20;99.90
74869;DHT22;63419;42.262;12.210;2022-11-20T07:13:22;8.20;99.90
74869;DHT22;63419;42.262;12.210;2022-11-20T07:15:52;8.20;99.90
74869;DHT22;63419;42.262;12.210;2022-11-20T07:18:27;8.30;99.90
74869;DHT22;63419;42.262;12.210;2022-11-20T07:21:06;8.30;99.90
74869;DHT22;63419;42.262;12.210;2022-11-20T07:23:42;8.40;99.90
74869;DHT22;63419;42.262;12.210;2022-11-20T07:26:12;8.40;99.90
74869;DHT22;63419;42.262;12.210;2022-11-20T07:28:44;8.50;99.90
74869;DHT22;63419;42.262;12.210;2022-11-20T07:31:25;8.50;99.90
74869;DHT22;63419;42.262;12.210;2022-11-20T07:33:55;8.60;99.90
74869;DHT22;63419;42.262;12.210;2022-11-20T07:36:25;8.60;99.90
74869;DHT22;63419;42.262;12.210;2022-11-20T07:39:01;8.60;99.90
74869;DHT22;63419;42.262;12.210;2022-11-20T07:41:34;8.80;99.90
74869;DHT22;63419;42.262;12.210;2022-11-20T07:44:10;8.80;99.90
74869;DHT22;63419;42.262;12.210;2022-11-20T07:46:44;8.90;99.90
74869;DHT22;63419;42.262;12.210;2022-11-20T07:49:14;9.00;99.90
74869;DHT22;63419;42.262;12.210;2022-11-20T07:51:54;9.00;99.90
74869;DHT22;63419;42.262;12.210;2022-11-20T07:54:32;9.10;99.90
74869;DHT22;63419;42.262;12.210;2022-11-20T07:57:05;9.20;99.90
74869;DHT22;63419;42.262;12.210;2022-11-20T07:59:36;9.30;99.90
74869;DHT22;63419;42.262;12.210;2022-11-20T08:02:04;9.40;99.90
74869;DHT22;63419;42.262;12.210;2022-11-20T08:04:31;9.40;99.90
74869;DHT22;63419;42.262;12.210;2022-11-20T08:07:07;9.60;99.90
74869;DHT22;63419;42.262;12.210;2022-11-20T08:09:44;9.60;99.90
74869;DHT22;63419;42.262;12.210;2022-11-20T08:12:21;9.80;99.90
74869;DHT22;63419;42.262;12.210;2022-11-20T08:15:09;9.90;99.90
74869;DHT22;63419;42.262;12.210;2022-11-20T08:17:49;10.00;99.90
74869;DHT22;63419;42.262;12.210;2022-11-20T08:20:48;10.00;99.90
74869;DHT22;63419;42.262;12.210;2022-11-20T08:23:27;10.20;99.90
74869;DHT22;63419;42.262;12.210;2022-11-20T08:26:03;10.30;99.90
74869;DHT22;63419;42.262;12.210;2022-11-20T08:28:32;10.40;99.90
74869;DHT22;63419;42.262;12.210;2022-11-20T08:31:03;10.50;99.90
74869;DHT22;63419;42.262;12.210;2022-11-20T08:33:37;10.50;99.90
74869;DHT22;63419;42.262;12.210;2022-11-20T08:36:07;10.60;99.90
74869;DHT22;63419;42.262;12.210;2022-11-20T08:39:00;10.70;99.90
74869;DHT22;63419;42.262;12.210;2022-11-20T08:41:39;10.70;99.90
74869;DHT22;63419;42.262;12.210;2022-11-20T08:44:18;10.70;99.90
74869;DHT22;63419;42.262;12.210;2022-11-20T08:46:49;10.80;99.90
74869;DHT22;63419;42.262;12.210;2022-11-20T08:49:18;10.80;99.90
74869;DHT22;63419;42.262;12.210;2022-11-20T08:51:56;10.90;99.90
74869;DHT22;63419;42.262;12.210;2022-11-20T08:54:34;11.00;99.90
74869;DHT22;63419;42.262;12.210;2022-11-20T08:57:11;11.00;99.90
74869;DHT22;63419;42.262;12.210;2022-11-20T08:59:52;11.00;99.90
74869;DHT22;63419;42.262;12.210;2022-11-20T09:02:32;11.20;99.90
74869;DHT22;63419;42.262;12.210;2022-11-20T09:05:03;11.20;99.90
74869;DHT22;63419;42.262;12.210;2022-11-20T09:07:37;11.20;99.90
74869;DHT22;63419;42.262;12.210;2022-11-20T09:10:21;11.30;99.90
74869;DHT22;63419;42.262;12.210;2022-11-20T09:12:52;11.40;99.90
74869;DHT22;63419;42.262;12.210;2022-11-20T09:15:25;11.60;99.90
74869;DHT22;63419;42.262;12.210;2022-11-20T09:18:11;11.60;99.90
74869;DHT22;63419;42.262;12.210;2022-11-20T09:20:40;11.80;99.90
74869;DHT22;63419;42.262;12.210;2022-11-20T09:23:10;11.80;99.90
74869;DHT22;63419;42.262;12.210;2022-11-20T09:25:47;11.90;99.90
74869;DHT22;63419;42.262;12.210;2022-11-20T09:28:30;11.80;99.90
74869;DHT22;63419;42.262;12.210;2022-11-20T09:31:04;12.00;99.90
74869;DHT22;63419;42.262;12.210;2022-11-20T09:33:40;12.00;99.90
74869;DHT22;63419;42.262;12.210;2022-11-20T09:36:13;12.10;99.90
74869;DHT22;63419;42.262;12.210;2022-11-20T09:38:41;12.30;99.90
74869;DHT22;63419;42.262;12.210;2022-11-20T09:47:31;12.40;99.90
74869;DHT22;63419;42.262;12.210;2022-11-20T09:50:40;12.30;99.90
74869;DHT22;63419;42.262;12.210;2022-11-20T09:56:28;12.80;99.90
74869;DHT22;63419;42.262;12.210;2022-11-20T09:59:02;12.90;99.90
74869;DHT22;63419;42.262;12.210;2022-11-20T10:01:36;13.10;99.90
74869;DHT22;63419;42.262;12.210;2022-11-20T10:04:17;12.90;99.90
74869;DHT22;63419;42.262;12.210;2022-11-20T10:10:02;12.70;99.90
74869;DHT22;63419;42.262;12.210;2022-11-20T10:12:57;12.60;99.90
74869;DHT22;63419;42.262;12.210;2022-11-20T10:15:38;12.80;99.90
74869;DHT22;63419;42.262;12.210;2022-11-20T10:18:49;12.90;99.90
74869;DHT22;63419;42.262;12.210;2022-11-20T10:30:51;12.50;99.90
74869;DHT22;63419;42.262;12.210;2022-11-20T10:33:35;12.50;99.90
74869;DHT22;63419;42.262;12.210;2022-11-20T10:36:41;12.60;99.90
74869;DHT22;63419;42.262;12.210;2022-11-20T10:42:35;12.90;99.90
74869;DHT22;63419;42.262;12.210;2022-11-20T10:45:47;13.40;99.90
74869;DHT22;63419;42.262;12.210;2022-11-20T10:48:53;13.60;99.90
74869;DHT22;63419;42.262;12.210;2022-11-20T10:51:35;14.00;99.90
74869;DHT22;63419;42.262;12.210;2022-11-20T10:54:24;13.80;99.90
74869;DHT22;63419;42.262;12.210;2022-11-20T11:00:13;14.20;99.90
74869;DHT22;63419;42.262;12.210;2022-11-20T11:02:53;14.40;99.90
74869;DHT22;63419;42.262;12.210;2022-11-20T11:05:43;14.30;99.90
74869;DHT22;63419;42.262;12.210;2022-11-20T11:08:40;14.20;99.90
74869;DHT22;63419;42.262;12.210;2022-11-20T11:11:36;14.20;99.90
74869;DHT22;63419;42.262;12.210;2022-11-20T11:14:15;14.50;99.90
74869;DHT22;63419;42.262;12.210;2022-11-20T11:17:18;14.60;99.90
74869;DHT22;63419;42.262;12.210;2022-11-20T11:20:24;14.60;99.90
74869;DHT22;63419;42.262;12.210;2022-11-20T11:22:59;14.40;99.90
74869;DHT22;63419;42.262;12.210;2022-11-20T11:25:35;14.30;99.90
74869;DHT22;63419;42.262;12.210;2022-11-20T11:28:21;14.90;99.90
74869;DHT22;63419;42.262;12.210;2022-11-20T11:30:57;15.50;99.90
74869;DHT22;63419;42.262;12.210;2022-11-20T11:33:38;16.30;99.90
74869;DHT22;63419;42.262;12.210;2022-11-20T11:36:18;16.30;99.90
74869;DHT22;63419;42.262;12.210;2022-11-20T11:38:51;16.50;99.90
74869;DHT22;63419;42.262;12.210;2022-11-20T11:41:28;16.70;99.90
74869;DHT22;63419;42.262;12.210;2022-11-20T11:44:43;17.10;99.90
74869;DHT22;63419;42.262;12.210;2022-11-20T11:47:37;16.10;99.90
74869;DHT22;63419;42.262;12.210;2022-11-20T11:50:25;16.10;99.90
74869;DHT22;63419;42.262;12.210;2022-11-20T11:53:18;16.10;99.90
74869;DHT22;63419;42.262;12.210;2022-11-20T11:56:08;15.80;99.90
74869;DHT22;63419;42.262;12.210;2022-11-20T11:58:53;15.40;99.90
74869;DHT22;63419;42.262;12.210;2022-11-20T12:01:36;15.90;99.90
74869;DHT22;63419;42.262;12.210;2022-11-20T12:07:38;15.50;99.90
74869;DHT22;63419;42.262;12.210;2022-11-20T12:13:48;15.60;99.90
74869;DHT22;63419;42.262;12.210;2022-11-20T12:16:34;15.90;99.90
74869;DHT22;63419;42.262;12.210;2022-11-20T12:19:14;16.40;99.90
74869;DHT22;63419;42.262;12.210;2022-11-20T12:30:28;15.80;99.90
74869;DHT22;63419;42.262;12.210;2022-11-20T12:39:12;15.80;99.90
74869;DHT22;63419;42.262;12.210;2022-11-20T12:55:08;15.50;99.90
74869;DHT22;63419;42.262;12.210;2022-11-20T13:07:30;14.80;99.90
74869;DHT22;63419;42.262;12.210;2022-11-20T13:13:55;14.90;99.90
74869;DHT22;63419;42.262;12.210;2022-11-20T13:17:06;15.30;99.90
74869;DHT22;63419;42.262;12.210;2022-11-20T13:20:01;15.10;99.90
74869;DHT22;63419;42.262;12.210;2022-11-20T13:22:47;15.60;99.90
74869;DHT22;63419;42.262;12.210;2022-11-20T13:25:38;15.20;99.90
74869;DHT22;63419;42.262;12.210;2022-11-20T13:30:53;15.00;99.90
74869;DHT22;63419;42.262;12.210;2022-11-20T13:33:31;15.00;99.90
74869;DHT22;63419;42.262;12.210;2022-11-20T13:36:23;15.10;99.90
74869;DHT22;63419;42.262;12.210;2022-11-20T13:39:04;14.70;99.90
74869;DHT22;63419;42.262;12.210;2022-11-20T13:41:55;14.80;99.90
74869;DHT22;63419;42.262;12.210;2022-11-20T13:44:53;15.20;99.90
74869;DHT22;63419;42.262;12.210;2022-11-20T13:47:26;14.90;99.90
74869;DHT22;63419;42.262;12.210;2022-11-20T13:49:59;15.20;99.90
74869;DHT22;63419;42.262;12.210;2022-11-20T13:55:54;14.50;99.90
74869;DHT22;63419;42.262;12.210;2022-11-20T14:01:57;15.40;99.90
74869;DHT22;63419;42.262;12.210;2022-11-20T14:04:43;15.10;99.90
74869;DHT22;63419;42.262;12.210;2022-11-20T14:07:35;14.80;99.90
74869;DHT22;63419;42.262;12.210;2022-11-20T14:10:27;15.00;99.90
74869;DHT22;63419;42.262;12.210;2022-11-20T14:13:49;15.10;99.90
74869;DHT22;63419;42.262;12.210;2022-11-20T14:16:05;14.80;99.90
74869;DHT22;63419;42.262;12.210;2022-11-20T14:18:51;14.90;99.90
74869;DHT22;63419;42.262;12.210;2022-11-20T14:21:32;14.60;99.90
74869;DHT22;63419;42.262;12.210;2022-11-20T14:24:06;14.90;99.90
74869;DHT22;63419;42.262;12.210;2022-11-20T14:26:43;14.30;99.90
74869;DHT22;63419;42.262;12.210;2022-11-20T14:29:23;14.30;99.90
74869;DHT22;63419;42.262;12.210;2022-11-20T14:32:14;14.20;99.90
74869;DHT22;63419;42.262;12.210;2022-11-20T14:34:48;14.10;99.90
74869;DHT22;63419;42.262;12.210;2022-11-20T14:37:26;13.80;99.90
74869;DHT22;63419;42.262;12.210;2022-11-20T14:40:24;14.40;99.90
74869;DHT22;63419;42.262;12.210;2022-11-20T14:43:24;14.00;99.90
74869;DHT22;63419;42.262;12.210;2022-11-20T14:46:00;14.20;99.90
74869;DHT22;63419;42.262;12.210;2022-11-20T14:48:55;13.70;99.90
74869;DHT22;63419;42.262;12.210;2022-11-20T14:51:42;13.90;99.90
74869;DHT22;63419;42.262;12.210;2022-11-20T14:54:16;13.70;99.90
74869;DHT22;63419;42.262;12.210;2022-11-20T14:56:56;13.90;99.90
74869;DHT22;63419;42.262;12.210;2022-11-20T14:59:27;13.70;99.90
74869;DHT22;63419;42.262;12.210;2022-11-20T15:02:10;13.50;99.90
74869;DHT22;63419;42.262;12.210;2022-11-20T15:04:50;13.60;99.90
74869;DHT22;63419;42.262;12.210;2022-11-20T15:07:37;13.40;99.90
74869;DHT22;63419;42.262;12.210;2022-11-20T15:10:24;13.20;99.90
74869;DHT22;63419;42.262;12.210;2022-11-20T15:16:13;13.00;99.90
74869;DHT22;63419;42.262;12.210;2022-11-20T15:18:55;12.70;99.90
74869;DHT22;63419;42.262;12.210;2022-11-20T15:21:26;12.50;99.90
74869;DHT22;63419;42.262;12.210;2022-11-20T15:23:57;12.60;99.90
74869;DHT22;63419;42.262;12.210;2022-11-20T15:26:29;12.70;99.90
74869;DHT22;63419;42.262;12.210;2022-11-20T15:32:02;12.70;99.90
74869;DHT22;63419;42.262;12.210;2022-11-20T15:34:40;12.40;99.90
74869;DHT22;63419;42.262;12.210;2022-11-20T15:37:10;12.00;99.90
74869;DHT22;63419;42.262;12.210;2022-11-20T15:39:41;11.90;99.90
74869;DHT22;63419;42.262;12.210;2022-11-20T15:42:13;11.60;99.90
74869;DHT22;63419;42.262;12.210;2022-11-20T15:44:47;11.20;99.90
74869;DHT22;63419;42.262;12.210;2022-11-20T15:47:23;10.80;99.90
74869;DHT22;63419;42.262;12.210;2022-11-20T15:49:58;10.60;99.90
74869;DHT22;63419;42.262;12.210;2022-11-20T15:52:33;10.50;99.90
74869;DHT22;63419;42.262;12.210;2022-11-20T15:55:20;10.30;99.90
74869;DHT22;63419;42.262;12.210;2022-11-20T15:57:51;10.20;99.90
74869;DHT22;63419;42.262;12.210;2022-11-20T16:00:24;10.20;99.90
74869;DHT22;63419;42.262;12.210;2022-11-20T16:02:58;10.10;99.90
74869;DHT22;63419;42.262;12.210;2022-11-20T16:05:31;10.00;99.90
74869;DHT22;63419;42.262;12.210;2022-11-20T16:08:01;9.90;99.90
74869;DHT22;63419;42.262;12.210;2022-11-20T16:10:35;9.90;99.90
74869;DHT22;63419;42.262;12.210;2022-11-20T16:13:17;9.80;99.90
74869;DHT22;63419;42.262;12.210;2022-11-20T16:16:07;9.70;99.90
74869;DHT22;63419;42.262;12.210;2022-11-20T16:18:42;9.70;99.90
74869;DHT22;63419;42.262;12.210;2022-11-20T16:21:15;9.60;99.90
74869;DHT22;63419;42.262;12.210;2022-11-20T16:23:43;9.50;99.90
74869;DHT22;63419;42.262;12.210;2022-11-20T16:26:17;9.50;99.90
74869;DHT22;63419;42.262;12.210;2022-11-20T16:28:46;9.50;99.90
74869;DHT22;63419;42.262;12.210;2022-11-20T16:31:22;9.50;99.90
74869;DHT22;63419;42.262;12.210;2022-11-20T16:33:52;9.50;99.90
74869;DHT22;63419;42.262;12.210;2022-11-20T16:36:41;9.50;99.90
74869;DHT22;63419;42.262;12.210;2022-11-20T16:39:16;9.40;99.90
74869;DHT22;63419;42.262;12.210;2022-11-20T16:41:51;9.30;99.90
74869;DHT22;63419;42.262;12.210;2022-11-20T16:44:20;9.30;99.90
74869;DHT22;63419;42.262;12.210;2022-11-20T16:46:49;9.30;99.90
74869;DHT22;63419;42.262;12.210;2022-11-20T16:49:20;9.20;99.90
74869;DHT22;63419;42.262;12.210;2022-11-20T16:51:53;9.20;99.90
74869;DHT22;63419;42.262;12.210;2022-11-20T16:54:23;9.20;99.90
74869;DHT22;63419;42.262;12.210;2022-11-20T16:56:56;9.20;99.90
74869;DHT22;63419;42.262;12.210;2022-11-20T16:59:27;9.20;99.90
74869;DHT22;63419;42.262;12.210;2022-11-20T17:02:01;9.10;99.90
74869;DHT22;63419;42.262;12.210;2022-11-20T17:04:32;9.10;99.90
74869;DHT22;63419;42.262;12.210;2022-11-20T17:07:14;9.00;99.90
74869;DHT22;63419;42.262;12.210;2022-11-20T17:09:46;9.00;99.90
74869;DHT22;63419;42.262;12.210;2022-11-20T17:12:19;9.00;99.90
74869;DHT22;63419;42.262;12.210;2022-11-20T17:14:55;9.00;99.90
74869;DHT22;63419;42.262;12.210;2022-11-20T17:17:22;9.00;99.90
74869;DHT22;63419;42.262;12.210;2022-11-20T17:19:51;9.00;99.90
74869;DHT22;63419;42.262;12.210;2022-11-20T17:22:22;8.90;99.90
74869;DHT22;63419;42.262;12.210;2022-11-20T17:24:56;9.00;99.90
74869;DHT22;63419;42.262;12.210;2022-11-20T17:27:29;8.90;99.90
74869;DHT22;63419;42.262;12.210;2022-11-20T17:29:58;8.80;99.90
74869;DHT22;63419;42.262;12.210;2022-11-20T17:32:27;8.80;99.90
74869;DHT22;63419;42.262;12.210;2022-11-20T17:35:00;8.80;99.90
74869;DHT22;63419;42.262;12.210;2022-11-20T17:37:38;8.80;99.90
74869;DHT22;63419;42.262;12.210;2022-11-20T17:40:10;8.70;99.90
74869;DHT22;63419;42.262;12.210;2022-11-20T17:42:38;8.80;99.90
74869;DHT22;63419;42.262;12.210;2022-11-20T17:45:21;8.70;99.90
74869;DHT22;63419;42.262;12.210;2022-11-20T17:47:56;8.70;99.90
74869;DHT22;63419;42.262;12.210;2022-11-20T17:50:26;8.70;99.90
74869;DHT22;63419;42.262;12.210;2022-11-20T17:53:06;8.60;99.90
74869;DHT22;63419;42.262;12.210;2022-11-20T17:55:33;8.70;99.90
74869;DHT22;63419;42.262;12.210;2022-11-20T17:58:26;8.60;99.90